createdAt,value
2019-03-15T00:02:06.220Z,2.00
2019-03-15T00:04:34.778Z,1.90
2019-03-15T00:07:03.162Z,2.22
2019-03-15T00:09:31.559Z,2.17
2019-03-15T00:12:02.606Z,2.00
2019-03-15T00:14:31.999Z,3.15
2019-03-15T00:17:00.385Z,2.47
2019-03-15T00:19:31.239Z,2.27
2019-03-15T00:21:59.665Z,1.72
2019-03-15T00:24:28.058Z,1.37
2019-03-15T00:26:58.986Z,2.55
2019-03-15T00:29:27.468Z,2.85
2019-03-15T00:31:55.857Z,2.45
2019-03-15T00:34:28.950Z,1.90
2019-03-15T00:36:57.335Z,1.60
2019-03-15T00:39:25.801Z,2.25
2019-03-15T00:41:54.434Z,2.35
2019-03-15T00:44:23.786Z,2.08
2019-03-15T00:46:52.196Z,2.72
2019-03-15T00:49:23.140Z,2.65
2019-03-15T00:51:51.535Z,3.83
2019-03-15T00:54:19.962Z,2.52
2019-03-15T00:56:48.454Z,2.22
2019-03-15T00:59:16.919Z,2.92
2019-03-15T01:01:47.470Z,2.65
2019-03-15T01:04:16.959Z,1.80
2019-03-15T01:06:49.502Z,2.92
2019-03-15T01:09:17.982Z,2.90
2019-03-15T01:11:46.345Z,2.35
2019-03-15T01:14:14.773Z,1.77
2019-03-15T01:16:43.164Z,1.92
2019-03-15T01:19:11.597Z,1.65
2019-03-15T01:21:42.681Z,1.82
2019-03-15T01:24:11.065Z,2.12
2019-03-15T01:26:39.464Z,2.20
2019-03-15T01:29:07.837Z,1.80
2019-03-15T01:31:36.313Z,1.70
2019-03-15T01:34:04.680Z,1.90
2019-03-15T01:36:34.169Z,1.77
2019-03-15T01:39:02.725Z,1.80
2019-03-15T01:41:31.135Z,1.77
2019-03-15T01:43:59.530Z,2.10
2019-03-15T01:46:27.905Z,1.57
2019-03-15T01:48:56.313Z,1.50
2019-03-15T01:51:24.798Z,1.82
2019-03-15T01:53:53.354Z,1.80
2019-03-15T01:56:22.829Z,1.82
2019-03-15T01:58:51.234Z,1.60
2019-03-15T02:01:19.641Z,2.00
2019-03-15T02:03:51.849Z,1.95
2019-03-15T02:06:22.285Z,2.33
2019-03-15T02:08:50.691Z,2.00
2019-03-15T02:11:19.088Z,1.77
2019-03-15T02:13:50.026Z,2.35
2019-03-15T02:16:17.612Z,2.02
2019-03-15T02:18:46.011Z,2.42
2019-03-15T02:21:14.442Z,2.42
2019-03-15T02:23:43.919Z,1.40
2019-03-15T02:26:12.329Z,1.80
2019-03-15T02:28:40.720Z,1.80
2019-03-15T02:31:09.120Z,1.32
2019-03-15T02:33:37.519Z,1.50
2019-03-15T02:36:05.892Z,1.27
2019-03-15T02:38:35.342Z,2.37
2019-03-15T02:41:05.828Z,1.10
2019-03-15T02:43:34.287Z,1.30
2019-03-15T02:46:02.651Z,1.40
2019-03-15T02:48:31.158Z,1.20
2019-03-15T02:50:59.564Z,1.30
2019-03-15T02:53:27.994Z,1.40
2019-03-15T02:55:56.391Z,1.30
2019-03-15T02:58:28.811Z,1.25
2019-03-15T03:03:24.845Z,1.32
2019-03-15T03:05:55.962Z,1.05
2019-03-15T03:08:29.201Z,1.55
2019-03-15T03:11:00.060Z,0.90
2019-03-15T03:13:28.450Z,1.25
2019-03-15T03:15:56.852Z,1.10
2019-03-15T03:18:25.241Z,1.20
2019-03-15T03:20:53.639Z,1.32
2019-03-15T03:23:26.915Z,2.10
2019-03-15T03:25:55.310Z,1.42
2019-03-15T03:28:24.751Z,1.20
2019-03-15T03:30:53.162Z,1.65
2019-03-15T03:33:21.563Z,1.98
2019-03-15T03:35:49.939Z,1.80
2019-03-15T03:38:19.601Z,1.57
2019-03-15T03:40:48.002Z,2.10
2019-03-15T03:43:16.416Z,1.20
2019-03-15T03:45:44.765Z,2.42
2019-03-15T03:48:15.772Z,2.50
2019-03-15T03:50:44.302Z,2.90
2019-03-15T03:53:12.759Z,1.87
2019-03-15T03:55:42.221Z,2.58
2019-03-15T03:58:10.679Z,2.20
2019-03-15T04:00:39.121Z,2.17
2019-03-15T04:03:07.649Z,2.25
2019-03-15T04:05:36.033Z,3.40
2019-03-15T04:08:04.679Z,1.98
2019-03-15T04:10:36.954Z,2.95
2019-03-15T04:13:06.395Z,2.80
2019-03-15T04:15:34.788Z,2.72
2019-03-15T04:18:06.868Z,3.42
2019-03-15T04:20:35.197Z,3.02
2019-03-15T04:23:05.982Z,3.17
2019-03-15T04:25:34.393Z,2.87
2019-03-15T04:28:02.804Z,3.10
2019-03-15T04:30:33.324Z,3.10
2019-03-15T04:33:02.424Z,1.80
2019-03-15T04:35:30.844Z,2.60
2019-03-15T04:37:59.284Z,3.08
2019-03-15T04:40:27.704Z,2.35
2019-03-15T04:42:56.098Z,2.90
2019-03-15T04:45:28.419Z,2.98
2019-03-15T04:47:56.847Z,2.00
2019-03-15T04:50:25.278Z,2.40
2019-03-15T04:52:53.672Z,3.10
2019-03-15T04:55:22.084Z,2.20
2019-03-15T04:57:50.473Z,2.45
2019-03-15T05:00:18.960Z,3.72
2019-03-15T05:02:48.396Z,3.40
2019-03-15T05:05:16.852Z,3.30
2019-03-15T05:07:48.100Z,3.92
2019-03-15T05:10:19.900Z,3.52
2019-03-15T05:12:48.920Z,3.92
2019-03-15T05:15:18.372Z,3.45
2019-03-15T05:17:47.873Z,5.55
2019-03-15T05:20:16.282Z,3.62
2019-03-15T05:22:44.655Z,4.00
2019-03-15T05:25:13.051Z,5.20
2019-03-15T05:27:41.536Z,4.78
2019-03-15T05:30:11.343Z,4.03
2019-03-15T05:32:39.756Z,4.78
2019-03-15T05:35:08.640Z,6.25
2019-03-15T05:37:37.046Z,5.08
2019-03-15T05:40:07.395Z,5.22
2019-03-15T05:42:35.779Z,5.37
2019-03-15T05:45:06.103Z,5.28
2019-03-15T05:47:34.594Z,4.97
2019-03-15T05:50:03.697Z,6.90
2019-03-15T05:52:33.134Z,7.20
2019-03-15T05:55:01.523Z,4.90
2019-03-15T05:57:29.911Z,5.50
2019-03-15T05:59:58.314Z,5.92
2019-03-15T06:02:26.716Z,6.15
2019-03-15T06:04:55.122Z,6.83
2019-03-15T06:07:23.488Z,6.55
2019-03-15T06:09:51.966Z,5.60
2019-03-15T06:12:22.794Z,5.53
2019-03-15T06:14:51.176Z,6.10
2019-03-15T06:17:19.588Z,5.03
2019-03-15T06:19:47.967Z,6.35
2019-03-15T06:22:16.373Z,6.20
2019-03-15T06:24:45.845Z,5.45
2019-03-15T06:27:14.245Z,5.55
2019-03-15T06:29:42.631Z,5.75
2019-03-15T06:32:11.075Z,5.62
2019-03-15T06:34:41.572Z,6.78
2019-03-15T06:37:09.975Z,6.40
2019-03-15T06:39:41.416Z,5.62
2019-03-15T06:42:12.166Z,6.85
2019-03-15T06:44:39.944Z,6.25
2019-03-15T06:47:12.206Z,7.47
2019-03-15T06:49:40.611Z,6.65
2019-03-15T06:52:08.994Z,7.22
2019-03-15T06:54:37.429Z,7.67
2019-03-15T06:57:06.554Z,8.93
2019-03-15T06:59:35.095Z,7.70
2019-03-15T07:02:20.777Z,8.83
2019-03-15T07:04:55.563Z,7.92
2019-03-15T07:07:23.953Z,8.05
2019-03-15T07:09:52.878Z,8.73
2019-03-15T07:12:21.266Z,7.75
2019-03-15T07:14:51.996Z,8.18
2019-03-15T07:17:20.486Z,8.48
2019-03-15T07:19:48.859Z,8.05
2019-03-15T07:22:20.013Z,8.75
2019-03-15T07:24:48.634Z,8.58
2019-03-15T07:27:17.031Z,9.30
2019-03-15T07:29:45.427Z,9.80
2019-03-15T07:32:13.861Z,8.30
2019-03-15T07:34:42.247Z,8.45
2019-03-15T07:37:10.657Z,8.75
2019-03-15T07:39:39.052Z,7.97
2019-03-15T07:42:07.445Z,8.03
2019-03-15T07:44:39.922Z,7.85
2019-03-15T07:49:39.193Z,7.22
2019-03-15T07:52:07.520Z,6.83
2019-03-15T07:54:38.228Z,7.67
2019-03-15T07:57:06.284Z,7.87
2019-03-15T07:59:39.448Z,6.92
2019-03-15T08:02:07.338Z,8.15
2019-03-15T08:04:36.175Z,7.53
2019-03-15T08:07:04.588Z,8.18
2019-03-15T08:09:32.970Z,8.45
2019-03-15T08:12:01.753Z,9.23
2019-03-15T08:14:30.135Z,9.83
2019-03-15T08:16:58.518Z,9.95
2019-03-15T08:19:26.913Z,8.70
2019-03-15T08:21:56.746Z,8.45
2019-03-15T08:24:25.260Z,9.28
2019-03-15T08:26:53.672Z,7.92
2019-03-15T08:29:22.042Z,9.95
2019-03-15T08:31:50.468Z,9.10
2019-03-15T08:34:18.990Z,9.18
2019-03-15T08:36:47.376Z,9.43
2019-03-15T08:39:17.434Z,9.83
2019-03-15T08:41:45.838Z,9.78
2019-03-15T08:44:14.329Z,11.40
2019-03-15T08:46:42.704Z,9.63
2019-03-15T08:49:11.114Z,9.70
2019-03-15T08:51:39.517Z,9.90
2019-03-15T08:54:07.912Z,8.00
2019-03-15T08:56:36.293Z,9.28
2019-03-15T08:59:04.759Z,8.00
2019-03-15T09:01:33.177Z,8.48
2019-03-15T09:04:01.583Z,9.10
2019-03-15T09:06:30.019Z,9.60
2019-03-15T09:08:58.390Z,9.53
2019-03-15T09:11:26.783Z,10.08
2019-03-15T09:13:55.205Z,9.38
2019-03-15T09:16:24.635Z,8.35
2019-03-15T09:18:55.448Z,9.43
2019-03-15T09:21:23.164Z,8.88
2019-03-15T09:23:51.589Z,9.88
2019-03-15T09:26:20.001Z,10.05
2019-03-15T09:28:48.371Z,9.05
2019-03-15T09:31:16.760Z,8.75
2019-03-15T09:33:45.149Z,9.73
2019-03-15T09:36:13.533Z,7.97
2019-03-15T09:38:41.928Z,8.50
2019-03-15T09:41:14.159Z,7.62
2019-03-15T09:43:45.162Z,8.38
2019-03-15T09:46:12.746Z,8.05
2019-03-15T09:48:43.743Z,7.92
2019-03-15T09:51:11.269Z,8.18
2019-03-15T09:53:39.716Z,9.45
2019-03-15T09:56:08.123Z,8.73
2019-03-15T09:58:36.509Z,9.00
2019-03-15T10:01:05.307Z,9.68
2019-03-15T10:03:34.106Z,9.10
2019-03-15T10:06:14.240Z,11.45
2019-03-15T10:08:35.452Z,10.60
2019-03-15T10:11:04.803Z,11.53
2019-03-15T10:13:33.285Z,12.33
2019-03-15T10:16:02.716Z,12.65
2019-03-15T10:18:35.161Z,12.53
2019-03-15T10:23:31.147Z,13.18
2019-03-15T10:25:59.512Z,12.47
2019-03-15T10:28:27.933Z,11.65
2019-03-15T10:30:56.344Z,11.53
2019-03-15T10:33:24.780Z,11.97
2019-03-15T10:35:55.669Z,10.95
2019-03-15T10:38:26.162Z,12.13
2019-03-15T10:40:54.596Z,11.68
2019-03-15T10:43:24.082Z,11.35
2019-03-15T10:45:52.461Z,12.20
2019-03-15T10:48:25.558Z,10.53
2019-03-15T10:50:51.069Z,9.35
2019-03-15T10:53:22.974Z,9.83
2019-03-15T10:56:00.190Z,9.53
2019-03-15T10:58:20.659Z,8.83
2019-03-15T11:00:49.083Z,8.55
2019-03-15T11:03:17.485Z,7.42
2019-03-15T11:05:45.928Z,7.20
2019-03-15T11:08:14.297Z,6.78
2019-03-15T11:10:42.728Z,7.45
2019-03-15T11:13:11.136Z,7.83
2019-03-15T11:15:39.572Z,7.62
2019-03-15T11:18:07.999Z,6.95
2019-03-15T11:20:36.902Z,7.85
2019-03-15T11:23:05.275Z,8.43
2019-03-15T11:25:33.666Z,7.95
2019-03-15T11:28:02.187Z,9.25
2019-03-15T11:30:31.185Z,9.88
2019-03-15T11:32:59.577Z,9.65
2019-03-15T11:35:27.988Z,10.20
2019-03-15T11:38:02.186Z,11.22
2019-03-15T11:40:38.045Z,10.60
2019-03-15T11:43:06.533Z,11.22
2019-03-15T11:45:34.969Z,11.88
2019-03-15T11:48:04.456Z,12.55
2019-03-15T11:50:33.064Z,13.68
2019-03-15T11:53:02.605Z,12.93
2019-03-15T11:55:32.104Z,13.05
2019-03-15T11:58:01.614Z,13.72
2019-03-15T12:00:30.038Z,13.32
2019-03-15T12:02:58.431Z,13.20
2019-03-15T12:05:26.919Z,12.82
2019-03-15T12:07:55.302Z,12.53
2019-03-15T12:10:23.735Z,12.15
2019-03-15T12:12:54.801Z,12.63
2019-03-15T12:15:23.243Z,12.18
2019-03-15T12:17:51.625Z,12.20
2019-03-15T12:20:24.426Z,11.80
2019-03-15T12:22:52.892Z,14.15
2019-03-15T12:25:21.354Z,12.85
2019-03-15T12:27:49.748Z,13.18
2019-03-15T12:30:18.251Z,12.73
2019-03-15T12:32:46.607Z,13.48
2019-03-15T12:35:17.954Z,11.60
2019-03-15T12:37:47.439Z,10.82
2019-03-15T12:40:16.961Z,11.78
2019-03-15T12:42:47.942Z,10.05
2019-03-15T12:45:16.488Z,10.15
2019-03-15T12:47:49.943Z,9.38
2019-03-15T12:50:22.155Z,8.80
2019-03-15T12:52:50.593Z,8.25
2019-03-15T12:55:18.979Z,7.35
2019-03-15T12:57:49.322Z,6.90
2019-03-15T13:00:21.006Z,6.03
2019-03-15T13:02:53.240Z,5.80
2019-03-15T13:05:21.636Z,6.08
2019-03-15T13:07:50.055Z,5.58
2019-03-15T13:10:23.761Z,5.62
2019-03-15T13:12:55.952Z,6.20
2019-03-15T13:15:24.335Z,6.08
2019-03-15T13:17:52.748Z,7.42
2019-03-15T13:20:23.482Z,6.00
2019-03-15T13:22:51.892Z,5.62
2019-03-15T13:25:20.285Z,5.83
2019-03-15T13:27:48.702Z,7.25
2019-03-15T13:30:22.993Z,5.97
2019-03-15T13:32:51.449Z,6.37
2019-03-15T13:35:19.927Z,6.85
2019-03-15T13:37:50.733Z,6.17
2019-03-15T13:40:20.573Z,5.87
2019-03-15T13:42:49.058Z,5.33
2019-03-15T13:45:17.784Z,4.90
2019-03-15T13:47:46.234Z,5.37
2019-03-15T13:50:18.912Z,4.20
2019-03-15T13:52:47.315Z,5.15
2019-03-15T13:55:15.761Z,4.10
2019-03-15T13:57:47.643Z,4.33
2019-03-15T14:00:22.397Z,3.92
2019-03-15T14:02:55.514Z,3.83
2019-03-15T14:05:26.414Z,3.22
2019-03-15T14:07:54.792Z,2.72
2019-03-15T14:10:23.281Z,2.90
2019-03-15T14:12:51.678Z,3.00
2019-03-15T14:15:20.816Z,3.20
2019-03-15T14:17:49.225Z,3.33
2019-03-15T14:20:20.350Z,3.55
2019-03-15T14:22:49.550Z,2.72
2019-03-15T14:25:23.521Z,3.37
2019-03-15T14:27:52.983Z,2.72
2019-03-15T14:30:25.171Z,3.37
2019-03-15T14:32:54.505Z,3.65
2019-03-15T14:35:23.124Z,2.87
2019-03-15T14:37:52.694Z,3.77
2019-03-15T14:40:23.694Z,4.22
2019-03-15T14:42:52.125Z,2.87
2019-03-15T14:45:20.532Z,3.62
2019-03-15T14:47:48.946Z,3.22
2019-03-15T14:50:17.540Z,4.08
2019-03-15T14:52:45.952Z,4.25
2019-03-15T14:55:16.842Z,3.00
2019-03-15T14:57:52.605Z,3.27
2019-03-15T15:00:20.395Z,3.47
2019-03-15T15:02:48.778Z,4.97
2019-03-15T15:05:17.178Z,3.40
2019-03-15T15:07:46.498Z,2.92
2019-03-15T15:10:16.153Z,3.52
2019-03-15T15:12:44.545Z,3.55
2019-03-15T15:15:15.104Z,3.85
2019-03-15T15:17:43.487Z,4.03
2019-03-15T15:20:12.623Z,3.45
2019-03-15T15:22:41.068Z,3.83
2019-03-15T15:25:14.979Z,3.22
2019-03-15T15:27:43.611Z,3.05
2019-03-15T15:30:13.756Z,3.65
2019-03-15T15:32:42.137Z,3.45
2019-03-15T15:35:15.149Z,3.30
2019-03-15T15:37:46.352Z,4.72
2019-03-15T15:40:19.584Z,3.58
2019-03-15T15:42:48.219Z,3.90
2019-03-15T15:45:16.857Z,4.55
2019-03-15T15:47:45.258Z,3.12
2019-03-15T15:50:15.798Z,3.25
2019-03-15T15:52:44.771Z,3.67
2019-03-15T15:55:15.268Z,3.52
2019-03-15T15:57:43.678Z,3.08
2019-03-15T16:00:19.281Z,3.47
2019-03-15T16:02:47.766Z,5.60
2019-03-15T16:05:19.828Z,3.10
2019-03-15T16:07:48.209Z,4.90
2019-03-15T16:10:18.169Z,4.30
2019-03-15T16:12:50.000Z,3.10
2019-03-15T16:15:19.497Z,3.87
2019-03-15T16:17:48.904Z,4.08
2019-03-15T16:20:17.291Z,4.75
2019-03-15T16:22:45.667Z,3.45
2019-03-15T16:25:17.615Z,3.25
2019-03-15T16:27:46.049Z,4.85
2019-03-15T16:30:19.233Z,3.85
2019-03-15T16:32:49.612Z,3.62
2019-03-15T16:35:18.151Z,4.40
2019-03-15T16:37:46.547Z,3.27
2019-03-15T16:40:17.257Z,3.33
2019-03-15T16:42:45.641Z,3.85
2019-03-15T16:45:27.761Z,3.72
2019-03-15T16:47:59.592Z,4.22
2019-03-15T16:50:27.977Z,3.70
2019-03-15T16:52:56.359Z,4.58
2019-03-15T16:55:24.749Z,3.80
2019-03-15T16:57:57.413Z,4.65
2019-03-15T17:00:25.931Z,4.47
2019-03-15T17:02:54.373Z,4.20
2019-03-15T17:05:22.773Z,5.03
2019-03-15T17:07:53.656Z,3.62
2019-03-15T17:10:22.069Z,4.58
2019-03-15T17:12:55.814Z,5.20
2019-03-15T17:15:28.719Z,4.58
2019-03-15T17:17:57.297Z,4.22
2019-03-15T17:20:25.663Z,4.67
2019-03-15T17:22:54.027Z,4.87
2019-03-15T17:25:24.107Z,4.58
2019-03-15T17:27:52.482Z,4.25
2019-03-15T17:30:20.946Z,4.60
2019-03-15T17:32:50.303Z,5.08
2019-03-15T17:35:20.083Z,5.58
2019-03-15T17:37:48.758Z,4.25
2019-03-15T17:40:21.783Z,4.15
2019-03-15T17:42:50.311Z,4.55
2019-03-15T17:45:18.821Z,4.22
2019-03-15T17:47:47.678Z,4.00
2019-03-15T17:50:27.000Z,4.95
2019-03-15T17:52:56.131Z,4.20
2019-03-15T17:55:25.590Z,4.55
2019-03-15T17:57:59.907Z,4.30
2019-03-15T18:00:45.284Z,4.17
2019-03-15T18:03:21.510Z,5.28
2019-03-15T18:05:46.598Z,5.12
2019-03-15T18:08:18.969Z,6.10
2019-03-15T18:10:48.415Z,4.95
2019-03-15T18:13:16.841Z,6.10
2019-03-15T18:15:45.224Z,6.05
2019-03-15T18:18:14.589Z,4.35
2019-03-15T18:20:43.019Z,6.45
2019-03-15T18:23:11.479Z,6.28
2019-03-15T18:25:40.976Z,6.30
2019-03-15T18:28:09.416Z,4.97
2019-03-15T18:30:37.790Z,7.15
2019-03-15T18:33:07.288Z,5.62
2019-03-15T18:35:35.671Z,6.12
2019-03-15T18:38:04.079Z,6.78
2019-03-15T18:40:36.001Z,5.85
2019-03-15T18:43:08.300Z,5.80
2019-03-15T18:45:36.607Z,6.08
2019-03-15T18:48:07.499Z,5.95
2019-03-15T18:50:35.907Z,6.45
2019-03-15T18:53:04.284Z,6.90
2019-03-15T18:55:32.662Z,5.92
2019-03-15T18:58:01.102Z,4.90
2019-03-15T19:00:29.753Z,6.67
2019-03-15T19:02:59.980Z,5.70
2019-03-15T19:05:28.361Z,6.33
2019-03-15T19:07:57.098Z,5.50
2019-03-15T19:10:26.444Z,7.15
2019-03-15T19:12:58.740Z,4.70
2019-03-15T19:15:27.128Z,5.70
2019-03-15T19:17:55.534Z,5.55
2019-03-15T19:20:24.156Z,5.03
2019-03-15T19:22:56.852Z,5.83
2019-03-15T19:25:25.315Z,5.97
2019-03-15T19:27:53.738Z,5.40
2019-03-15T19:30:22.141Z,5.72
2019-03-15T19:32:54.636Z,4.50
2019-03-15T19:37:50.716Z,4.87
2019-03-15T19:40:22.976Z,5.95
2019-03-15T19:42:55.248Z,5.58
2019-03-15T19:45:23.657Z,5.22
2019-03-15T19:47:52.067Z,5.53
2019-03-15T19:50:21.390Z,6.47
2019-03-15T19:52:49.806Z,5.72
2019-03-15T19:55:18.336Z,6.83
2019-03-15T19:57:46.821Z,6.80
2019-03-15T20:00:16.899Z,8.15
2019-03-15T20:02:45.951Z,5.97
2019-03-15T20:05:14.362Z,6.80
2019-03-15T20:07:42.928Z,5.55
2019-03-15T20:10:16.147Z,5.78
2019-03-15T20:12:43.342Z,6.10
2019-03-15T20:15:16.193Z,5.60
2019-03-15T20:17:44.629Z,5.10
2019-03-15T20:20:23.466Z,5.42
2019-03-15T20:22:53.686Z,5.37
2019-03-15T20:25:22.133Z,5.55
2019-03-15T20:27:50.602Z,5.85
2019-03-15T20:30:26.675Z,6.95
2019-03-15T20:32:56.666Z,6.50
2019-03-15T20:35:25.065Z,4.45
2019-03-15T20:37:53.560Z,4.97
2019-03-15T20:40:21.939Z,6.53
2019-03-15T20:42:52.824Z,5.78
2019-03-15T20:45:29.268Z,6.12
2019-03-15T20:48:01.506Z,5.58
2019-03-15T20:50:29.881Z,7.12
2019-03-15T20:53:08.534Z,5.60
2019-03-15T20:55:29.039Z,5.47
2019-03-15T20:57:57.646Z,5.87
2019-03-15T21:00:35.500Z,5.33
2019-03-15T21:02:56.221Z,6.05
2019-03-15T21:05:24.667Z,6.78
2019-03-15T21:07:54.156Z,5.67
2019-03-15T21:10:22.558Z,5.35
2019-03-15T21:12:53.764Z,6.75
2019-03-15T21:15:22.158Z,5.47
2019-03-15T21:17:50.577Z,5.65
2019-03-15T21:20:22.549Z,5.92
2019-03-15T21:22:50.230Z,5.40
2019-03-15T21:25:18.614Z,6.08
2019-03-15T21:27:53.572Z,5.83
2019-03-15T21:30:20.203Z,6.45
2019-03-15T21:32:52.324Z,7.25
2019-03-15T21:35:20.685Z,5.83
2019-03-15T21:37:49.228Z,5.33
2019-03-15T21:40:19.956Z,6.00
2019-03-15T21:42:49.402Z,4.97
2019-03-15T21:45:17.959Z,6.12
2019-03-15T21:47:46.342Z,6.10
2019-03-15T21:50:24.678Z,6.12
2019-03-15T21:52:54.097Z,5.78
2019-03-15T21:55:22.484Z,6.10
2019-03-15T21:57:51.029Z,5.22
2019-03-15T22:00:20.352Z,5.83
2019-03-15T22:02:48.753Z,6.08
2019-03-15T22:05:17.195Z,5.20
2019-03-15T22:07:45.600Z,5.45
2019-03-15T22:10:15.023Z,6.12
2019-03-15T22:12:43.580Z,6.28
2019-03-15T22:15:13.205Z,5.53
2019-03-15T22:17:45.397Z,6.35
2019-03-15T22:20:17.328Z,7.33
2019-03-15T22:22:46.836Z,6.10
2019-03-15T22:25:17.973Z,6.53
2019-03-15T22:27:49.822Z,7.33
2019-03-15T22:30:16.517Z,5.53
2019-03-15T22:32:44.993Z,5.97
2019-03-15T22:35:13.700Z,6.85
2019-03-15T22:37:42.103Z,6.28
2019-03-15T22:40:12.753Z,5.67
2019-03-15T22:42:41.285Z,7.17
2019-03-15T22:45:11.802Z,6.75
2019-03-15T22:47:40.217Z,6.95
2019-03-15T22:50:10.251Z,6.08
2019-03-15T22:52:41.999Z,5.65
2019-03-15T22:55:11.969Z,6.25
2019-03-15T22:57:41.285Z,7.28
2019-03-15T23:00:23.508Z,6.85
2019-03-15T23:02:52.119Z,5.03
2019-03-15T23:05:20.671Z,5.62
2019-03-15T23:07:49.093Z,5.75
2019-03-15T23:10:17.525Z,5.45
2019-03-15T23:12:45.919Z,4.95
2019-03-15T23:15:14.304Z,4.83
2019-03-15T23:17:42.732Z,5.60
2019-03-15T23:20:14.503Z,5.58
2019-03-15T23:22:42.928Z,6.05
2019-03-15T23:25:11.369Z,5.97
2019-03-15T23:27:39.777Z,7.17
2019-03-15T23:30:17.791Z,5.95
2019-03-15T23:32:46.179Z,6.78
2019-03-15T23:35:14.645Z,6.28
2019-03-15T23:37:43.066Z,5.62
2019-03-15T23:40:14.929Z,5.55
2019-03-15T23:42:48.968Z,5.53
2019-03-15T23:45:17.453Z,5.70
2019-03-15T23:47:45.930Z,5.50
2019-03-15T23:50:15.250Z,5.65
2019-03-15T23:52:44.724Z,5.80
2019-03-15T23:55:13.307Z,6.28
2019-03-15T23:57:41.797Z,6.45
